createdAt,value
2023-01-18T00:01:41.711Z,98646.94
2023-01-18T00:04:08.110Z,98643.56
2023-01-18T00:06:34.508Z,98640.97
2023-01-18T00:09:00.999Z,98640.97
2023-01-18T00:11:27.443Z,98642.75
2023-01-18T00:13:54.207Z,98645.81
2023-01-18T00:16:21.507Z,98649.66
2023-01-18T00:18:52.538Z,98649.03
2023-01-18T00:21:19.235Z,98655.94
2023-01-18T00:23:45.775Z,98655.78
2023-01-18T00:26:12.572Z,98652.56
2023-01-18T00:28:39.465Z,98650.16
2023-01-18T00:31:16.609Z,98645.34
2023-01-18T00:33:43.641Z,98651.47
2023-01-18T00:36:10.462Z,98651.94
2023-01-18T00:38:36.856Z,98653.53
2023-01-18T00:41:03.412Z,98652.09
2023-01-18T00:43:38.898Z,98659.03
2023-01-18T00:46:09.486Z,98654.19
2023-01-18T00:48:36.390Z,98664.31
2023-01-18T00:51:02.785Z,98663.19
2023-01-18T00:53:29.679Z,98655.63
2023-01-18T00:55:56.114Z,98659.81
2023-01-18T00:58:22.606Z,98654.19
2023-01-18T01:00:50.959Z,98657.56
2023-01-18T01:03:17.461Z,98656.28
2023-01-18T01:06:02.557Z,98656.75
2023-01-18T01:08:28.994Z,98657.88
2023-01-18T01:11:09.506Z,98656.44
2023-01-18T01:13:55.235Z,98668.00
2023-01-18T01:16:40.266Z,98667.84
2023-01-18T01:19:25.509Z,98669.75
2023-01-18T01:22:10.322Z,98657.09
2023-01-18T01:24:55.239Z,98661.41
2023-01-18T01:27:21.607Z,98659.50
2023-01-18T01:29:48.012Z,98673.31
2023-01-18T01:32:14.413Z,98673.44
2023-01-18T01:34:40.783Z,98681.50
2023-01-18T01:37:07.225Z,98682.47
2023-01-18T01:39:33.641Z,98681.66
2023-01-18T01:42:00.068Z,98678.75
2023-01-18T01:44:29.819Z,98684.53
2023-01-18T01:47:02.379Z,98683.91
2023-01-18T01:49:34.682Z,98684.88
2023-01-18T01:52:08.879Z,98687.28
2023-01-18T01:54:40.517Z,98695.78
2023-01-18T01:57:12.406Z,98703.66
2023-01-18T01:59:59.014Z,98694.66
2023-01-18T02:02:25.455Z,98695.91
2023-01-18T02:04:54.108Z,98694.13
2023-01-18T02:07:26.141Z,98704.13
2023-01-18T02:09:53.323Z,98708.75
2023-01-18T02:12:20.194Z,98707.78
2023-01-18T02:14:47.514Z,98705.56
2023-01-18T02:17:23.165Z,98705.56
2023-01-18T02:19:55.473Z,98702.81
2023-01-18T02:22:40.917Z,98709.56
2023-01-18T02:25:22.930Z,98709.06
2023-01-18T02:28:09.929Z,98710.19
2023-01-18T02:30:39.313Z,98713.09
2023-01-18T02:33:10.752Z,98713.25
2023-01-18T02:35:46.532Z,98710.69
2023-01-18T02:38:15.436Z,98710.69
2023-01-18T02:40:47.862Z,98722.06
2023-01-18T02:43:34.513Z,98716.13
2023-01-18T02:46:30.574Z,98723.81
2023-01-18T02:48:58.111Z,98719.94
2023-01-18T02:51:24.792Z,98724.63
2023-01-18T02:53:51.138Z,98730.56
2023-01-18T02:56:36.421Z,98727.19
2023-01-18T02:59:18.657Z,98730.84
2023-01-18T03:02:00.662Z,98731.53
2023-01-18T03:04:32.305Z,98734.38
2023-01-18T03:07:04.008Z,98732.63
2023-01-18T03:09:31.136Z,98732.78
2023-01-18T03:12:00.986Z,98733.75
2023-01-18T03:14:27.553Z,98732.28
2023-01-18T03:16:58.241Z,98734.72
2023-01-18T03:19:56.367Z,98736.94
2023-01-18T03:22:44.689Z,98737.09
2023-01-18T03:25:13.306Z,98739.78
2023-01-18T03:27:59.694Z,98740.75
2023-01-18T03:30:49.651Z,98739.78
2023-01-18T03:33:37.459Z,98737.72
2023-01-18T03:36:06.057Z,98742.16
2023-01-18T03:38:33.930Z,98739.94
2023-01-18T03:41:01.485Z,98743.94
2023-01-18T03:43:36.312Z,98752.44
2023-01-18T03:46:03.476Z,98749.53
2023-01-18T03:48:30.992Z,98755.47
2023-01-18T03:51:13.793Z,98765.91
2023-01-18T03:53:46.835Z,98764.28
2023-01-18T03:56:21.837Z,98767.03
2023-01-18T03:58:50.953Z,98769.88
2023-01-18T04:01:17.392Z,98781.28
2023-01-18T04:03:43.844Z,98778.88
2023-01-18T04:06:10.219Z,98782.25
2023-01-18T04:08:36.609Z,98784.00
2023-01-18T04:11:02.988Z,98780.75
2023-01-18T04:13:29.380Z,98778.03
2023-01-18T04:15:55.800Z,98789.25
2023-01-18T04:18:22.210Z,98794.56
2023-01-18T04:20:49.086Z,98786.06
2023-01-18T04:23:15.818Z,98783.94
2023-01-18T04:25:49.893Z,98797.44
2023-01-18T04:28:17.281Z,98789.75
2023-01-18T04:30:43.661Z,98797.88
2023-01-18T04:33:10.001Z,98797.72
2023-01-18T04:35:36.348Z,98804.13
2023-01-18T04:38:02.800Z,98807.00
2023-01-18T04:40:29.240Z,98807.00
2023-01-18T04:42:56.226Z,98815.78
2023-01-18T04:45:23.189Z,98818.22
2023-01-18T04:47:49.562Z,98821.75
2023-01-18T04:50:16.093Z,98822.19
2023-01-18T04:52:42.474Z,98827.16
2023-01-18T04:55:09.119Z,98830.69
2023-01-18T04:57:35.465Z,98824.75
2023-01-18T05:00:02.188Z,98826.66
2023-01-18T05:02:28.673Z,98833.66
2023-01-18T05:04:55.696Z,98837.19
2023-01-18T05:07:24.267Z,98831.66
2023-01-18T05:09:50.662Z,98829.47
2023-01-18T05:12:16.996Z,98845.69
2023-01-18T05:14:43.365Z,98844.72
2023-01-18T05:17:09.734Z,98848.25
2023-01-18T05:19:36.100Z,98850.81
2023-01-18T05:22:02.479Z,98853.66
2023-01-18T05:24:29.964Z,98858.41
2023-01-18T05:26:56.647Z,98857.13
2023-01-18T05:29:22.984Z,98859.38
2023-01-18T05:31:49.543Z,98862.91
2023-01-18T05:34:16.019Z,98867.88
2023-01-18T05:36:42.453Z,98869.38
2023-01-18T05:39:09.326Z,98874.63
2023-01-18T05:41:35.696Z,98874.78
2023-01-18T05:44:02.070Z,98887.59
2023-01-18T05:46:28.433Z,98887.44
2023-01-18T05:48:58.601Z,98886.38
2023-01-18T05:51:25.399Z,98894.34
2023-01-18T05:53:51.789Z,98897.38
2023-01-18T05:56:18.178Z,98899.94
2023-01-18T05:58:44.584Z,98912.09
2023-01-18T06:01:11.041Z,98909.50
2023-01-18T06:03:37.487Z,98913.19
2023-01-18T06:06:03.947Z,98923.44
2023-01-18T06:08:30.366Z,98921.00
2023-01-18T06:10:58.378Z,98924.41
2023-01-18T06:13:27.977Z,98923.06
2023-01-18T06:15:54.725Z,98927.25
2023-01-18T06:18:21.530Z,98934.94
2023-01-18T06:20:47.886Z,98931.72
2023-01-18T06:23:14.256Z,98929.16
2023-01-18T06:25:40.669Z,98937.66
2023-01-18T06:28:07.057Z,98941.47
2023-01-18T06:30:34.343Z,98940.13
2023-01-18T06:33:06.133Z,98940.28
2023-01-18T06:35:36.154Z,98948.50
2023-01-18T06:38:03.548Z,98947.69
2023-01-18T06:40:30.092Z,98952.13
2023-01-18T06:42:57.109Z,98961.31
2023-01-18T06:45:25.362Z,98973.34
2023-01-18T06:47:52.814Z,98966.88
2023-01-18T06:50:19.253Z,98972.16
2023-01-18T06:52:45.759Z,98977.28
2023-01-18T06:55:12.591Z,98976.34
2023-01-18T06:57:38.969Z,98976.47
2023-01-18T07:00:06.401Z,98987.69
2023-01-18T07:02:33.501Z,98979.31
2023-01-18T07:05:00.151Z,98978.25
2023-01-18T07:07:26.655Z,98985.13
2023-01-18T07:09:53.042Z,98990.69
2023-01-18T07:12:19.548Z,98993.38
2023-01-18T07:14:46.768Z,98994.47
2023-01-18T07:17:13.292Z,99003.91
2023-01-18T07:19:39.684Z,99001.50
2023-01-18T07:22:06.093Z,99005.81
2023-01-18T07:24:32.515Z,99010.00
2023-01-18T07:26:59.632Z,99021.22
2023-01-18T07:29:26.127Z,99020.53
2023-01-18T07:31:52.590Z,99023.91
2023-01-18T07:34:18.971Z,99025.53
2023-01-18T07:36:45.445Z,99036.88
2023-01-18T07:39:11.995Z,99032.84
2023-01-18T07:41:38.770Z,99039.72
2023-01-18T07:44:05.636Z,99044.84
2023-01-18T07:46:32.536Z,99048.63
2023-01-18T07:48:59.096Z,99054.16
2023-01-18T07:51:25.491Z,99056.88
2023-01-18T07:53:55.222Z,99051.34
2023-01-18T07:56:22.842Z,99056.31
2023-01-18T07:58:49.225Z,99059.69
2023-01-18T08:01:17.686Z,99055.53
2023-01-18T08:03:44.929Z,99057.28
2023-01-18T08:06:12.757Z,99064.16
2023-01-18T08:08:39.184Z,99062.41
2023-01-18T08:11:07.093Z,99070.75
2023-01-18T08:13:33.477Z,99069.28
2023-01-18T08:16:00.899Z,99069.03
2023-01-18T08:18:27.572Z,99067.69
2023-01-18T08:20:55.247Z,99071.59
2023-01-18T08:23:21.990Z,99082.25
2023-01-18T08:25:48.453Z,99083.34
2023-01-18T08:28:15.380Z,99094.69
2023-01-18T08:30:43.361Z,99095.34
2023-01-18T08:33:09.754Z,99097.09
2023-01-18T08:35:40.848Z,99104.94
2023-01-18T08:38:07.293Z,99118.41
2023-01-18T08:40:34.040Z,99113.44
2023-01-18T08:43:02.181Z,99130.28
2023-01-18T08:45:28.987Z,99130.81
2023-01-18T08:47:56.315Z,99124.75
2023-01-18T08:50:23.211Z,99140.94
2023-01-18T08:52:52.424Z,99141.50
2023-01-18T08:55:19.219Z,99145.81
2023-01-18T08:57:45.593Z,99147.81
2023-01-18T09:00:13.010Z,99157.28
2023-01-18T09:02:39.497Z,99159.97
2023-01-18T09:05:06.137Z,99167.53
2023-01-18T09:07:32.523Z,99163.91
2023-01-18T09:09:58.875Z,99163.50
2023-01-18T09:12:25.427Z,99166.59
2023-01-18T09:14:51.830Z,99174.28
2023-01-18T09:17:19.257Z,99170.63
2023-01-18T09:19:45.999Z,99179.53
2023-01-18T09:22:12.355Z,99182.50
2023-01-18T09:24:38.793Z,99175.91
2023-01-18T09:27:05.686Z,99182.78
2023-01-18T09:29:32.166Z,99192.22
2023-01-18T09:31:59.841Z,99193.84
2023-01-18T09:34:26.277Z,99187.75
2023-01-18T09:36:52.895Z,99200.97
2023-01-18T09:39:20.268Z,99202.59
2023-01-18T09:41:54.778Z,99201.13
2023-01-18T09:44:36.044Z,99208.25
2023-01-18T09:47:07.523Z,99203.97
2023-01-18T09:49:37.075Z,99208.53
2023-01-18T09:52:22.935Z,99207.06
2023-01-18T09:54:52.646Z,99213.69
2023-01-18T09:57:22.003Z,99222.84
2023-01-18T09:59:55.645Z,99225.03
2023-01-18T10:02:23.744Z,99238.78
2023-01-18T10:05:11.532Z,99229.19
2023-01-18T10:07:45.746Z,99232.69
2023-01-18T10:10:16.033Z,99230.28
2023-01-18T10:12:58.057Z,99225.81
2023-01-18T10:15:31.830Z,99229.06
2023-01-18T10:18:00.568Z,99228.25
2023-01-18T10:20:36.813Z,99229.88
2023-01-18T10:23:03.414Z,99227.84
2023-01-18T10:25:37.475Z,99233.13
2023-01-18T10:28:06.897Z,99239.59
2023-01-18T10:30:33.350Z,99236.34
2023-01-18T10:33:01.005Z,99243.09
2023-01-18T10:35:30.946Z,99246.34
2023-01-18T10:38:00.903Z,99245.66
2023-01-18T10:40:27.484Z,99246.22
2023-01-18T10:42:56.808Z,99236.50
2023-01-18T10:45:25.024Z,99238.94
2023-01-18T10:47:52.923Z,99241.22
2023-01-18T10:50:24.583Z,99244.19
2023-01-18T10:52:50.987Z,99257.28
2023-01-18T10:55:18.710Z,99262.00
2023-01-18T10:57:49.856Z,99260.38
2023-01-18T11:00:23.169Z,99253.38
2023-01-18T11:02:51.269Z,99266.59
2023-01-18T11:05:30.281Z,99264.00
2023-01-18T11:08:12.157Z,99269.16
2023-01-18T11:10:38.732Z,99271.06
2023-01-18T11:13:23.874Z,99269.56
2023-01-18T11:16:02.454Z,99274.69
2023-01-18T11:18:28.881Z,99279.81
2023-01-18T11:20:55.784Z,99274.94
2023-01-18T11:23:25.280Z,99281.69
2023-01-18T11:25:51.650Z,99270.47
2023-01-18T11:28:20.041Z,99276.56
2023-01-18T11:30:54.272Z,99272.22
2023-01-18T11:33:21.883Z,99278.97
2023-01-18T11:35:53.438Z,99277.22
2023-01-18T11:38:19.828Z,99277.63
2023-01-18T11:40:46.255Z,99278.72
2023-01-18T11:43:15.644Z,99277.06
2023-01-18T11:45:45.600Z,99274.50
2023-01-18T11:48:12.047Z,99273.03
2023-01-18T11:50:38.517Z,99266.94
2023-01-18T11:53:13.027Z,99270.56
2023-01-18T11:55:43.730Z,99269.63
2023-01-18T11:58:39.868Z,99269.19
2023-01-18T12:01:12.145Z,99276.75
2023-01-18T12:03:47.658Z,99267.59
2023-01-18T12:06:33.110Z,99269.88
2023-01-18T12:09:24.632Z,99269.59
2023-01-18T12:12:18.617Z,99272.16
2023-01-18T12:15:04.951Z,99267.44
2023-01-18T12:17:45.951Z,99270.00
2023-01-18T12:20:20.923Z,99277.56
2023-01-18T12:22:53.481Z,99276.75
2023-01-18T12:25:31.819Z,99280.94
2023-01-18T12:28:07.316Z,99277.25
2023-01-18T12:30:51.125Z,99277.25
2023-01-18T12:33:43.417Z,99277.00
2023-01-18T12:36:28.965Z,99273.47
2023-01-18T12:38:57.362Z,99269.94
2023-01-18T12:41:42.393Z,99278.84
2023-01-18T12:44:25.481Z,99285.59
2023-01-18T12:47:11.530Z,99286.28
2023-01-18T12:49:40.238Z,99290.63
2023-01-18T12:52:18.430Z,99287.75
2023-01-18T12:54:47.863Z,99286.66
2023-01-18T12:57:14.921Z,99289.75
2023-01-18T12:59:45.287Z,99294.75
2023-01-18T13:02:45.612Z,99299.06
2023-01-18T13:05:33.713Z,99294.25
2023-01-18T13:08:06.475Z,99293.53
2023-01-18T13:10:34.149Z,99293.38
2023-01-18T13:13:02.371Z,99302.03
2023-01-18T13:15:47.262Z,99300.13
2023-01-18T13:18:21.616Z,99298.50
2023-01-18T13:21:03.387Z,99295.94
2023-01-18T13:23:33.535Z,99293.09
2023-01-18T13:26:08.762Z,99294.06
2023-01-18T13:28:36.864Z,99289.72
2023-01-18T13:31:06.079Z,99294.88
2023-01-18T13:33:34.487Z,99295.78
2023-01-18T13:36:08.650Z,99295.69
2023-01-18T13:38:41.532Z,99297.44
2023-01-18T13:41:13.046Z,99294.94
2023-01-18T13:43:46.093Z,99295.63
2023-01-18T13:46:15.788Z,99296.31
2023-01-18T13:48:52.832Z,99303.84
2023-01-18T13:51:38.155Z,99297.75
2023-01-18T13:54:05.274Z,99310.19
2023-01-18T13:56:33.201Z,99322.91
2023-01-18T13:58:59.647Z,99322.91
2023-01-18T14:01:28.275Z,99320.63
2023-01-18T14:03:55.240Z,99323.19
2023-01-18T14:06:24.488Z,99330.91
2023-01-18T14:08:53.188Z,99321.44
2023-01-18T14:11:27.500Z,99324.97
2023-01-18T14:13:53.845Z,99329.81
2023-01-18T14:16:28.304Z,99329.81
2023-01-18T14:19:17.023Z,99337.38
2023-01-18T14:21:43.629Z,99344.28
2023-01-18T14:24:25.075Z,99342.50
2023-01-18T14:26:53.853Z,99346.47
2023-01-18T14:29:38.888Z,99354.16
2023-01-18T14:32:06.716Z,99351.19
2023-01-18T14:34:40.379Z,99352.41
2023-01-18T14:37:39.240Z,99368.53
2023-01-18T14:40:07.621Z,99366.59
2023-01-18T14:42:35.024Z,99368.53
2023-01-18T14:45:02.875Z,99374.75
2023-01-18T14:47:30.766Z,99377.19
2023-01-18T14:49:57.431Z,99380.84
2023-01-18T14:52:25.999Z,99384.91
2023-01-18T14:54:53.854Z,99390.72
2023-01-18T14:57:21.297Z,99383.94
2023-01-18T15:00:08.028Z,99381.13
2023-01-18T15:02:37.618Z,99391.25
2023-01-18T15:05:10.683Z,99384.50
2023-01-18T15:07:39.168Z,99390.16
2023-01-18T15:10:06.822Z,99393.69
2023-01-18T15:12:33.647Z,99401.81
2023-01-18T15:15:05.143Z,99411.03
2023-01-18T15:17:32.028Z,99420.09
2023-01-18T15:20:00.147Z,99412.50
2023-01-18T15:22:31.325Z,99418.59
2023-01-18T15:24:58.619Z,99417.94
2023-01-18T15:27:25.324Z,99420.50
2023-01-18T15:29:56.232Z,99417.53
2023-01-18T15:32:24.153Z,99421.56
2023-01-18T15:34:52.173Z,99422.53
2023-01-18T15:37:30.311Z,99423.34
2023-01-18T15:39:57.670Z,99425.09
2023-01-18T15:42:30.893Z,99427.81
2023-01-18T15:44:59.032Z,99419.16
2023-01-18T15:47:25.409Z,99426.72
2023-01-18T15:49:52.887Z,99429.19
2023-01-18T15:52:36.199Z,99424.69
2023-01-18T15:55:06.046Z,99429.72
2023-01-18T15:57:35.486Z,99425.81
2023-01-18T16:00:02.506Z,99439.31
2023-01-18T16:02:31.719Z,99437.16
2023-01-18T16:05:08.788Z,99444.75
2023-01-18T16:07:39.870Z,99441.38
2023-01-18T16:10:09.231Z,99445.56
2023-01-18T16:12:35.768Z,99441.50
2023-01-18T16:15:02.185Z,99436.63
2023-01-18T16:17:30.057Z,99440.16
2023-01-18T16:19:57.628Z,99446.25
2023-01-18T16:22:24.038Z,99456.38
2023-01-18T16:24:56.309Z,99459.22
2023-01-18T16:27:24.007Z,99462.88
2023-01-18T16:29:58.171Z,99460.56
2023-01-18T16:32:24.557Z,99459.91
2023-01-18T16:34:52.495Z,99459.38
2023-01-18T16:37:19.137Z,99469.25
2023-01-18T16:39:45.513Z,99477.22
2023-01-18T16:42:12.475Z,99480.75
2023-01-18T16:44:40.504Z,99488.31
2023-01-18T16:47:06.899Z,99485.22
2023-01-18T16:49:33.319Z,99486.69
2023-01-18T16:52:00.000Z,99478.31
2023-01-18T16:54:26.347Z,99479.25
2023-01-18T16:56:52.803Z,99484.66
2023-01-18T16:59:22.289Z,99483.06
2023-01-18T17:01:49.640Z,99479.94
2023-01-18T17:04:16.223Z,99480.06
2023-01-18T17:06:43.675Z,99483.59
2023-01-18T17:09:19.415Z,99482.91
2023-01-18T17:11:46.109Z,99492.50
2023-01-18T17:14:12.594Z,99491.69
2023-01-18T17:16:39.769Z,99490.22
2023-01-18T17:19:10.940Z,99491.13
2023-01-18T17:21:37.335Z,99494.66
2023-01-18T17:24:03.795Z,99493.03
2023-01-18T17:26:30.186Z,99496.00
2023-01-18T17:28:56.633Z,99498.72
2023-01-18T17:31:23.045Z,99511.69
2023-01-18T17:33:49.460Z,99508.03
2023-01-18T17:36:15.857Z,99501.00
2023-01-18T17:38:42.251Z,99515.59
2023-01-18T17:41:26.812Z,99512.34
2023-01-18T17:43:54.190Z,99515.84
2023-01-18T17:46:20.591Z,99519.50
2023-01-18T17:48:47.020Z,99520.56
2023-01-18T17:51:13.899Z,99520.31
2023-01-18T17:53:41.201Z,99526.53
2023-01-18T17:56:11.778Z,99524.06
2023-01-18T17:58:38.629Z,99535.44
2023-01-18T18:01:11.696Z,99532.31
2023-01-18T18:03:39.134Z,99539.75
2023-01-18T18:06:05.697Z,99543.66
2023-01-18T18:08:32.760Z,99540.00
2023-01-18T18:10:59.969Z,99546.91
2023-01-18T18:13:27.566Z,99542.16
2023-01-18T18:15:54.147Z,99548.22
2023-01-18T18:18:23.910Z,99550.56
2023-01-18T18:20:55.955Z,99556.06
2023-01-18T18:23:22.384Z,99562.28
2023-01-18T18:25:48.789Z,99567.28
2023-01-18T18:28:15.230Z,99569.28
2023-01-18T18:30:41.700Z,99562.00
2023-01-18T18:33:08.130Z,99561.19
2023-01-18T18:35:34.561Z,99566.47
2023-01-18T18:38:01.021Z,99564.16
2023-01-18T18:40:27.421Z,99570.38
2023-01-18T18:43:02.030Z,99576.16
2023-01-18T18:45:32.239Z,99569.56
2023-01-18T18:47:58.897Z,99586.94
2023-01-18T18:50:25.323Z,99585.91
2023-01-18T18:52:51.795Z,99584.25
2023-01-18T18:55:18.961Z,99580.88
2023-01-18T18:57:45.329Z,99590.91
2023-01-18T19:00:12.123Z,99599.41
2023-01-18T19:02:38.606Z,99596.16
2023-01-18T19:05:05.679Z,99597.72
2023-01-18T19:07:33.627Z,99603.97
2023-01-18T19:10:00.077Z,99610.84
2023-01-18T19:12:26.533Z,99611.66
2023-01-18T19:14:52.903Z,99611.94
2023-01-18T19:17:29.723Z,99616.25
2023-01-18T19:19:56.974Z,99613.13
2023-01-18T19:22:23.402Z,99617.44
2023-01-18T19:24:49.811Z,99621.78
2023-01-18T19:27:16.555Z,99634.97
2023-01-18T19:29:43.247Z,99632.41
2023-01-18T19:32:09.961Z,99636.59
2023-01-18T19:34:38.284Z,99651.06
2023-01-18T19:37:04.834Z,99633.34
2023-01-18T19:39:34.434Z,99636.28
2023-01-18T19:42:01.786Z,99638.75
2023-01-18T19:44:28.283Z,99641.72
2023-01-18T19:46:56.734Z,99648.63
2023-01-18T19:49:26.221Z,99642.94
2023-01-18T19:51:53.182Z,99646.44
2023-01-18T19:54:19.893Z,99649.25
2023-01-18T19:56:46.503Z,99653.88
2023-01-18T19:59:14.434Z,99656.44
2023-01-18T20:01:40.987Z,99658.44
2023-01-18T20:04:07.740Z,99657.75
2023-01-18T20:06:34.992Z,99657.06
2023-01-18T20:09:01.893Z,99661.94
2023-01-18T20:11:29.150Z,99664.50
2023-01-18T20:13:55.872Z,99664.94
2023-01-18T20:16:22.632Z,99677.22
2023-01-18T20:18:49.028Z,99666.53
2023-01-18T20:21:17.082Z,99670.72
2023-01-18T20:23:44.164Z,99664.63
2023-01-18T20:26:11.427Z,99670.28
2023-01-18T20:28:37.967Z,99674.31
2023-01-18T20:31:05.840Z,99673.41
2023-01-18T20:33:33.034Z,99677.59
2023-01-18T20:36:01.623Z,99678.34
2023-01-18T20:38:28.162Z,99685.66
2023-01-18T20:40:54.872Z,99685.66
2023-01-18T20:43:21.349Z,99682.88
2023-01-18T20:45:47.823Z,99684.84
2023-01-18T20:48:14.364Z,99682.16
2023-01-18T20:50:41.185Z,99686.34
2023-01-18T20:53:07.569Z,99684.50
2023-01-18T20:55:34.013Z,99690.78
2023-01-18T20:58:00.410Z,99679.97
2023-01-18T21:00:26.806Z,99690.66
2023-01-18T21:02:53.260Z,99692.69
2023-01-18T21:05:19.755Z,99687.06
2023-01-18T21:07:46.177Z,99687.28
2023-01-18T21:10:12.627Z,99685.44
2023-01-18T21:12:40.975Z,99690.56
2023-01-18T21:15:08.956Z,99692.19
2023-01-18T21:17:35.943Z,99698.13
2023-01-18T21:20:02.386Z,99691.97
2023-01-18T21:22:28.969Z,99692.28
2023-01-18T21:24:57.191Z,99690.28
2023-01-18T21:27:26.550Z,99690.97
2023-01-18T21:29:53.795Z,99694.47
2023-01-18T21:32:20.311Z,99698.94
2023-01-18T21:34:46.813Z,99704.13
2023-01-18T21:37:13.205Z,99707.38
2023-01-18T21:39:39.592Z,99707.38
2023-01-18T21:42:24.495Z,99700.63
2023-01-18T21:45:09.448Z,99704.13
2023-01-18T21:47:35.805Z,99704.06
2023-01-18T21:50:20.769Z,99696.41
2023-01-18T21:53:05.628Z,99697.50
2023-01-18T21:55:32.082Z,99703.44
2023-01-18T21:58:17.034Z,99704.00
2023-01-18T22:00:43.503Z,99709.25
2023-01-18T22:03:09.957Z,99709.97
2023-01-18T22:05:36.374Z,99710.91
2023-01-18T22:08:02.976Z,99713.88
2023-01-18T22:10:29.622Z,99717.28
2023-01-18T22:12:56.126Z,99715.53
2023-01-18T22:15:23.014Z,99724.41
2023-01-18T22:17:49.403Z,99725.59
2023-01-18T22:20:16.457Z,99730.13
2023-01-18T22:22:42.829Z,99735.00
2023-01-18T22:25:09.381Z,99725.41
2023-01-18T22:27:35.818Z,99738.00
2023-01-18T22:30:04.271Z,99743.00
2023-01-18T22:32:30.667Z,99738.13
2023-01-18T22:34:57.217Z,99741.50
2023-01-18T22:37:25.700Z,99745.13
2023-01-18T22:39:52.161Z,99742.56
2023-01-18T22:42:18.925Z,99754.56
2023-01-18T22:44:45.322Z,99749.44
2023-01-18T22:47:11.701Z,99750.16
2023-01-18T22:49:38.140Z,99762.97
2023-01-18T22:52:04.635Z,99765.56
2023-01-18T22:54:31.003Z,99760.66
2023-01-18T22:56:57.367Z,99767.19
2023-01-18T22:59:23.752Z,99775.09
2023-01-18T23:01:50.167Z,99775.91
2023-01-18T23:04:16.519Z,99775.91
2023-01-18T23:06:46.626Z,99773.13
2023-01-18T23:09:14.601Z,99770.41
2023-01-18T23:11:41.360Z,99771.94
2023-01-18T23:14:26.538Z,99775.56
2023-01-18T23:17:11.492Z,99776.38
2023-01-18T23:19:37.882Z,99773.94
2023-01-18T23:22:07.301Z,99770.56
2023-01-18T23:24:37.599Z,99781.50
2023-01-18T23:27:05.474Z,99786.63
2023-01-18T23:29:31.868Z,99778.94
2023-01-18T23:31:58.716Z,99780.00
2023-01-18T23:34:25.443Z,99776.63
2023-01-18T23:36:52.081Z,99776.38
2023-01-18T23:39:37.283Z,99778.00
2023-01-18T23:42:22.509Z,99781.38
2023-01-18T23:45:07.607Z,99782.22
2023-01-18T23:47:53.497Z,99774.50
2023-01-18T23:50:38.612Z,99779.63
2023-01-18T23:53:23.500Z,99788.16
2023-01-18T23:55:52.956Z,99774.50
2023-01-18T23:58:19.588Z,99786.25
